sensor_id;sensor_type;location;lat;lon;timestamp;pressure;altitude;pressure_sealevel;temperature;humidity
33554;BME280;19885;42.208;24.952;2023-01-28T00:00:24;99145.03;;;5.02;88.19
33554;BME280;19885;42.208;24.952;2023-01-28T00:02:49;99139.88;;;5.02;88.05
33554;BME280;19885;42.208;24.952;2023-01-28T00:05:15;99135.59;;;5.01;87.04
33554;BME280;19885;42.208;24.952;2023-01-28T00:07:40;99136.41;;;4.98;87.33
33554;BME280;19885;42.208;24.952;2023-01-28T00:10:06;99132.91;;;4.95;87.10
33554;BME280;19885;42.208;24.952;2023-01-28T00:12:32;99119.88;;;4.87;87.12
33554;BME280;19885;42.208;24.952;2023-01-28T00:14:57;99069.56;;;4.63;86.37
33554;BME280;19885;42.208;24.952;2023-01-28T00:17:23;99129.56;;;5.02;85.53
33554;BME280;19885;42.208;24.952;2023-01-28T00:19:48;99157.28;;;5.12;86.00
33554;BME280;19885;42.208;24.952;2023-01-28T00:22:16;99135.59;;;5.01;85.67
33554;BME280;19885;42.208;24.952;2023-01-28T00:24:41;99163.13;;;5.02;85.31
33554;BME280;19885;42.208;24.952;2023-01-28T00:27:10;99156.28;;;5.04;85.91
33554;BME280;19885;42.208;24.952;2023-01-28T00:29:35;99158.09;;;5.11;86.49
33554;BME280;19885;42.208;24.952;2023-01-28T00:32:01;99158.97;;;5.09;86.21
33554;BME280;19885;42.208;24.952;2023-01-28T00:34:29;99154.47;;;4.98;86.26
33554;BME280;19885;42.208;24.952;2023-01-28T00:36:55;99164.13;;;5.09;86.01
33554;BME280;19885;42.208;24.952;2023-01-28T00:39:24;99165.69;;;5.00;85.29
33554;BME280;19885;42.208;24.952;2023-01-28T00:41:51;99162.97;;;4.93;85.09
33554;BME280;19885;42.208;24.952;2023-01-28T00:44:17;99172.44;;;4.94;84.88
33554;BME280;19885;42.208;24.952;2023-01-28T00:46:42;99179.94;;;4.79;84.58
33554;BME280;19885;42.208;24.952;2023-01-28T00:49:08;99162.94;;;4.90;85.56
33554;BME280;19885;42.208;24.952;2023-01-28T00:51:34;99171.41;;;4.83;85.59
33554;BME280;19885;42.208;24.952;2023-01-28T00:53:59;99102.88;;;4.51;84.96
33554;BME280;19885;42.208;24.952;2023-01-28T00:56:24;99175.03;;;4.92;85.70
33554;BME280;19885;42.208;24.952;2023-01-28T00:58:50;99173.25;;;4.90;86.17
33554;BME280;19885;42.208;24.952;2023-01-28T01:01:19;99181.81;;;4.89;85.54
33554;BME280;19885;42.208;24.952;2023-01-28T01:03:45;99175.88;;;4.93;85.36
33554;BME280;19885;42.208;24.952;2023-01-28T01:06:13;99185.28;;;4.91;85.39
33554;BME280;19885;42.208;24.952;2023-01-28T01:08:39;99180.09;;;4.88;85.48
33554;BME280;19885;42.208;24.952;2023-01-28T01:11:08;99175.06;;;4.95;85.98
33554;BME280;19885;42.208;24.952;2023-01-28T01:13:35;99097.47;;;4.37;85.69
33554;BME280;19885;42.208;24.952;2023-01-28T01:16:09;99173.00;;;4.76;85.79
33554;BME280;19885;42.208;24.952;2023-01-28T01:18:38;99177.59;;;4.92;85.19
33554;BME280;19885;42.208;24.952;2023-01-28T01:21:15;99185.19;;;4.85;85.64
33554;BME280;19885;42.208;24.952;2023-01-28T01:23:42;99164.63;;;4.88;85.24
33554;BME280;19885;42.208;24.952;2023-01-28T01:26:08;99183.69;;;4.97;85.41
33554;BME280;19885;42.208;24.952;2023-01-28T01:28:34;99178.44;;;4.93;85.53
33554;BME280;19885;42.208;24.952;2023-01-28T01:31:02;99184.44;;;4.90;85.76
33554;BME280;19885;42.208;24.952;2023-01-28T01:33:29;99182.63;;;4.86;85.30
33554;BME280;19885;42.208;24.952;2023-01-28T01:35:58;99199.00;;;4.87;85.91
33554;BME280;19885;42.208;24.952;2023-01-28T01:38:24;99190.34;;;4.85;85.92
33554;BME280;19885;42.208;24.952;2023-01-28T01:40:50;99196.50;;;4.93;85.43
33554;BME280;19885;42.208;24.952;2023-01-28T01:43:18;99180.94;;;4.88;85.87
33554;BME280;19885;42.208;24.952;2023-01-28T01:45:47;99202.25;;;4.77;86.39
33554;BME280;19885;42.208;24.952;2023-01-28T01:48:21;99196.31;;;4.82;86.96
33554;BME280;19885;42.208;24.952;2023-01-28T01:50:56;99186.88;;;4.83;86.95
33554;BME280;19885;42.208;24.952;2023-01-28T01:53:27;99203.19;;;4.82;85.95
33554;BME280;19885;42.208;24.952;2023-01-28T01:55:57;99215.34;;;4.86;86.24
33554;BME280;19885;42.208;24.952;2023-01-28T01:58:32;99213.41;;;4.76;86.36
33554;BME280;19885;42.208;24.952;2023-01-28T02:01:03;99209.31;;;4.87;87.00
33554;BME280;19885;42.208;24.952;2023-01-28T02:03:58;99211.00;;;4.85;86.42
33554;BME280;19885;42.208;24.952;2023-01-28T02:06:29;99214.41;;;4.84;87.17
33554;BME280;19885;42.208;24.952;2023-01-28T02:08:55;99211.09;;;4.91;85.71
33554;BME280;19885;42.208;24.952;2023-01-28T02:11:24;99204.09;;;4.84;86.93
33554;BME280;19885;42.208;24.952;2023-01-28T02:13:53;99219.66;;;4.87;86.08
33554;BME280;19885;42.208;24.952;2023-01-28T02:16:19;99222.25;;;4.88;86.52
33554;BME280;19885;42.208;24.952;2023-01-28T02:18:46;99148.22;;;4.40;85.46
33554;BME280;19885;42.208;24.952;2023-01-28T02:24:39;99229.72;;;4.75;85.73
33554;BME280;19885;42.208;24.952;2023-01-28T02:30:14;99232.53;;;4.85;86.87
33554;BME280;19885;42.208;24.952;2023-01-28T02:35:31;99229.06;;;4.83;86.58
33554;BME280;19885;42.208;24.952;2023-01-28T02:38:06;99225.53;;;4.80;86.78
33554;BME280;19885;42.208;24.952;2023-01-28T02:40:36;99157.44;;;4.27;86.57
33554;BME280;19885;42.208;24.952;2023-01-28T02:43:40;99233.06;;;4.68;86.33
33554;BME280;19885;42.208;24.952;2023-01-28T02:49:17;99240.00;;;4.72;86.25
33554;BME280;19885;42.208;24.952;2023-01-28T02:54:59;99247.03;;;4.79;85.94
33554;BME280;19885;42.208;24.952;2023-01-28T02:57:42;99239.94;;;4.69;85.56
33554;BME280;19885;42.208;24.952;2023-01-28T03:00:18;99251.41;;;4.83;85.77
33554;BME280;19885;42.208;24.952;2023-01-28T03:02:57;99176.56;;;4.38;85.20
33554;BME280;19885;42.208;24.952;2023-01-28T03:05:47;99248.47;;;4.65;85.37
33554;BME280;19885;42.208;24.952;2023-01-28T03:08:33;99238.41;;;4.77;85.12
33554;BME280;19885;42.208;24.952;2023-01-28T03:11:18;99246.16;;;4.78;85.60
33554;BME280;19885;42.208;24.952;2023-01-28T03:14:03;99257.38;;;4.82;85.14
33554;BME280;19885;42.208;24.952;2023-01-28T03:16:49;99257.53;;;4.88;85.10
33554;BME280;19885;42.208;24.952;2023-01-28T03:19:33;99255.84;;;4.90;84.54
33554;BME280;19885;42.208;24.952;2023-01-28T03:22:18;99253.13;;;4.84;84.52
33554;BME280;19885;42.208;24.952;2023-01-28T03:25:03;99253.16;;;4.85;84.41
33554;BME280;19885;42.208;24.952;2023-01-28T03:27:53;99249.53;;;4.76;84.21
33554;BME280;19885;42.208;24.952;2023-01-28T03:30:42;99265.84;;;4.75;84.72
33554;BME280;19885;42.208;24.952;2023-01-28T03:33:28;99171.44;;;4.40;84.13
33554;BME280;19885;42.208;24.952;2023-01-28T03:36:13;99262.56;;;4.82;83.97
33554;BME280;19885;42.208;24.952;2023-01-28T03:38:57;99266.03;;;4.84;84.47
33554;BME280;19885;42.208;24.952;2023-01-28T03:41:24;99271.09;;;4.79;83.73
33554;BME280;19885;42.208;24.952;2023-01-28T03:43:51;99261.00;;;4.90;83.44
33554;BME280;19885;42.208;24.952;2023-01-28T03:46:17;99255.66;;;4.81;83.59
33554;BME280;19885;42.208;24.952;2023-01-28T03:48:43;99262.34;;;4.70;83.48
33554;BME280;19885;42.208;24.952;2023-01-28T03:51:10;99258.25;;;4.82;83.56
33554;BME280;19885;42.208;24.952;2023-01-28T03:53:36;99270.38;;;4.86;82.40
33554;BME280;19885;42.208;24.952;2023-01-28T03:56:02;99259.78;;;4.71;82.97
33554;BME280;19885;42.208;24.952;2023-01-28T03:58:27;99274.53;;;4.77;83.10
33554;BME280;19885;42.208;24.952;2023-01-28T04:01:10;99270.97;;;4.72;83.45
33554;BME280;19885;42.208;24.952;2023-01-28T04:03:36;99277.22;;;4.83;82.97
33554;BME280;19885;42.208;24.952;2023-01-28T04:06:06;99246.78;;;4.67;82.69
33554;BME280;19885;42.208;24.952;2023-01-28T04:08:33;99281.47;;;4.81;83.03
33554;BME280;19885;42.208;24.952;2023-01-28T04:10:59;99187.53;;;4.29;83.25
33554;BME280;19885;42.208;24.952;2023-01-28T04:13:43;99278.84;;;4.79;82.75
33554;BME280;19885;42.208;24.952;2023-01-28T04:16:09;99275.38;;;4.77;82.83
33554;BME280;19885;42.208;24.952;2023-01-28T04:18:35;99284.69;;;4.71;83.11
33554;BME280;19885;42.208;24.952;2023-01-28T04:21:01;99282.00;;;4.65;83.20
33554;BME280;19885;42.208;24.952;2023-01-28T04:23:29;99204.38;;;4.11;83.64
33554;BME280;19885;42.208;24.952;2023-01-28T04:26:00;99202.59;;;4.08;82.99
33554;BME280;19885;42.208;24.952;2023-01-28T04:28:25;99257.44;;;4.43;83.49
33554;BME280;19885;42.208;24.952;2023-01-28T04:30:51;99276.47;;;4.47;83.22
33554;BME280;19885;42.208;24.952;2023-01-28T04:33:17;99276.56;;;4.53;83.18
33554;BME280;19885;42.208;24.952;2023-01-28T04:35:43;99290.97;;;4.42;83.77
33554;BME280;19885;42.208;24.952;2023-01-28T04:38:08;99291.97;;;4.48;84.08
33554;BME280;19885;42.208;24.952;2023-01-28T04:40:34;99304.84;;;4.47;83.71
33554;BME280;19885;42.208;24.952;2023-01-28T04:42:59;99291.97;;;4.48;84.21
33554;BME280;19885;42.208;24.952;2023-01-28T04:45:24;99231.91;;;4.13;83.82
33554;BME280;19885;42.208;24.952;2023-01-28T04:47:50;99297.97;;;4.47;83.18
33554;BME280;19885;42.208;24.952;2023-01-28T04:50:16;99302.34;;;4.50;83.16
33554;BME280;19885;42.208;24.952;2023-01-28T04:52:41;99307.59;;;4.54;83.09
33554;BME280;19885;42.208;24.952;2023-01-28T04:55:07;99319.75;;;4.61;83.56
33554;BME280;19885;42.208;24.952;2023-01-28T04:57:33;99305.72;;;4.49;82.60
33554;BME280;19885;42.208;24.952;2023-01-28T04:59:59;99329.25;;;4.64;82.98
33554;BME280;19885;42.208;24.952;2023-01-28T05:02:24;99325.69;;;4.57;83.00
33554;BME280;19885;42.208;24.952;2023-01-28T05:04:49;99331.81;;;4.62;83.34
33554;BME280;19885;42.208;24.952;2023-01-28T05:07:15;99337.88;;;4.63;83.58
33554;BME280;19885;42.208;24.952;2023-01-28T05:09:40;99337.97;;;4.69;82.75
33554;BME280;19885;42.208;24.952;2023-01-28T05:12:07;99344.72;;;4.62;82.83
33554;BME280;19885;42.208;24.952;2023-01-28T05:14:32;99274.22;;;4.23;82.65
33554;BME280;19885;42.208;24.952;2023-01-28T05:16:57;99344.53;;;4.53;82.99
33554;BME280;19885;42.208;24.952;2023-01-28T05:19:23;99344.69;;;4.61;82.83
33554;BME280;19885;42.208;24.952;2023-01-28T05:21:48;99349.16;;;4.68;83.01
33554;BME280;19885;42.208;24.952;2023-01-28T05:24:14;99353.47;;;4.69;82.92
33554;BME280;19885;42.208;24.952;2023-01-28T05:26:40;99336.97;;;4.61;82.72
33554;BME280;19885;42.208;24.952;2023-01-28T05:29:06;99354.38;;;4.71;82.96
33554;BME280;19885;42.208;24.952;2023-01-28T05:31:31;99356.22;;;4.76;82.57
33554;BME280;19885;42.208;24.952;2023-01-28T05:33:56;99256.97;;;4.20;83.10
33554;BME280;19885;42.208;24.952;2023-01-28T05:36:22;99363.06;;;4.74;83.20
33554;BME280;19885;42.208;24.952;2023-01-28T05:38:47;99337.88;;;4.63;83.35
33554;BME280;19885;42.208;24.952;2023-01-28T05:41:16;99369.06;;;4.75;83.81
33554;BME280;19885;42.208;24.952;2023-01-28T05:43:41;99371.81;;;4.82;82.66
33554;BME280;19885;42.208;24.952;2023-01-28T05:46:07;99383.59;;;4.70;82.49
33554;BME280;19885;42.208;24.952;2023-01-28T05:48:32;99371.13;;;4.52;83.28
33554;BME280;19885;42.208;24.952;2023-01-28T05:50:57;99369.72;;;4.65;83.74
33554;BME280;19885;42.208;24.952;2023-01-28T05:53:23;99384.53;;;4.73;82.94
33554;BME280;19885;42.208;24.952;2023-01-28T05:55:49;99381.16;;;4.76;82.44
33554;BME280;19885;42.208;24.952;2023-01-28T05:58:16;99387.97;;;4.74;82.61
33554;BME280;19885;42.208;24.952;2023-01-28T06:00:41;99398.19;;;4.68;83.61
33554;BME280;19885;42.208;24.952;2023-01-28T06:03:07;99376.47;;;4.58;83.69
33554;BME280;19885;42.208;24.952;2023-01-28T06:05:33;99400.78;;;4.69;84.03
33554;BME280;19885;42.208;24.952;2023-01-28T06:07:58;99386.13;;;4.68;83.71
33554;BME280;19885;42.208;24.952;2023-01-28T06:10:24;99394.03;;;4.76;84.16
33554;BME280;19885;42.208;24.952;2023-01-28T06:12:49;99410.34;;;4.75;84.39
33554;BME280;19885;42.208;24.952;2023-01-28T06:15:15;99413.19;;;4.85;83.81
33554;BME280;19885;42.208;24.952;2023-01-28T06:17:40;99406.31;;;4.86;83.68
33554;BME280;19885;42.208;24.952;2023-01-28T06:20:06;99416.53;;;4.81;83.75
33554;BME280;19885;42.208;24.952;2023-01-28T06:22:33;99403.47;;;4.74;84.05
33554;BME280;19885;42.208;24.952;2023-01-28T06:24:58;99413.91;;;4.80;83.79
33554;BME280;19885;42.208;24.952;2023-01-28T06:27:24;99426.13;;;4.88;83.80
33554;BME280;19885;42.208;24.952;2023-01-28T06:29:49;99410.34;;;4.75;83.39
33554;BME280;19885;42.208;24.952;2023-01-28T06:32:15;99436.53;;;4.90;83.27
33554;BME280;19885;42.208;24.952;2023-01-28T06:34:40;99437.31;;;4.87;84.04
33554;BME280;19885;42.208;24.952;2023-01-28T06:37:07;99441.69;;;4.91;83.86
33554;BME280;19885;42.208;24.952;2023-01-28T06:39:32;99444.09;;;4.84;83.95
33554;BME280;19885;42.208;24.952;2023-01-28T06:41:58;99453.19;;;5.04;83.32
33554;BME280;19885;42.208;24.952;2023-01-28T06:44:24;99455.63;;;4.98;83.11
33554;BME280;19885;42.208;24.952;2023-01-28T06:46:49;99380.75;;;4.59;83.07
33554;BME280;19885;42.208;24.952;2023-01-28T06:49:15;99459.25;;;5.06;82.95
33554;BME280;19885;42.208;24.952;2023-01-28T06:51:40;99467.22;;;5.17;82.20
33554;BME280;19885;42.208;24.952;2023-01-28T06:54:06;99460.53;;;5.26;82.05
33554;BME280;19885;42.208;24.952;2023-01-28T06:56:32;99469.97;;;5.24;81.71
33554;BME280;19885;42.208;24.952;2023-01-28T06:58:57;99462.84;;;5.14;82.22
33554;BME280;19885;42.208;24.952;2023-01-28T07:01:23;99456.19;;;5.25;82.15
33554;BME280;19885;42.208;24.952;2023-01-28T07:03:48;99472.13;;;5.45;82.41
33554;BME280;19885;42.208;24.952;2023-01-28T07:06:14;99463.41;;;5.40;81.77
33554;BME280;19885;42.208;24.952;2023-01-28T07:08:39;99451.09;;;5.28;80.56
33554;BME280;19885;42.208;24.952;2023-01-28T07:11:06;99480.81;;;5.48;80.84
33554;BME280;19885;42.208;24.952;2023-01-28T07:13:31;99482.50;;;5.48;80.76
33554;BME280;19885;42.208;24.952;2023-01-28T07:15:57;99476.53;;;5.50;81.67
33554;BME280;19885;42.208;24.952;2023-01-28T07:18:23;99481.84;;;5.56;80.86
33554;BME280;19885;42.208;24.952;2023-01-28T07:20:48;99488.31;;;5.79;80.58
33554;BME280;19885;42.208;24.952;2023-01-28T07:23:14;99490.78;;;6.17;80.20
33554;BME280;19885;42.208;24.952;2023-01-28T07:25:39;99486.53;;;6.71;77.77
33554;BME280;19885;42.208;24.952;2023-01-28T07:28:05;99494.34;;;7.33;74.97
33554;BME280;19885;42.208;24.952;2023-01-28T07:30:31;99494.88;;;7.75;72.96
33554;BME280;19885;42.208;24.952;2023-01-28T07:32:57;99498.72;;;8.07;71.49
33554;BME280;19885;42.208;24.952;2023-01-28T07:35:24;99486.91;;;8.36;70.73
33554;BME280;19885;42.208;24.952;2023-01-28T07:37:53;99502.50;;;8.36;69.12
33554;BME280;19885;42.208;24.952;2023-01-28T07:40:19;99506.13;;;8.53;68.47
33554;BME280;19885;42.208;24.952;2023-01-28T07:42:45;99491.34;;;8.48;69.28
33554;BME280;19885;42.208;24.952;2023-01-28T07:45:11;99502.16;;;8.06;70.86
33554;BME280;19885;42.208;24.952;2023-01-28T07:47:36;99521.06;;;7.95;70.89
33554;BME280;19885;42.208;24.952;2023-01-28T07:50:02;99522.63;;;7.82;72.50
33554;BME280;19885;42.208;24.952;2023-01-28T07:52:28;99529.34;;;7.68;71.75
33554;BME280;19885;42.208;24.952;2023-01-28T07:54:53;99522.84;;;8.00;72.83
33554;BME280;19885;42.208;24.952;2023-01-28T07:57:19;99515.00;;;8.80;71.70
33554;BME280;19885;42.208;24.952;2023-01-28T07:59:50;99520.47;;;9.16;69.18
33554;BME280;19885;42.208;24.952;2023-01-28T08:02:16;99516.81;;;8.93;69.22
33554;BME280;19885;42.208;24.952;2023-01-28T08:04:42;99521.13;;;8.91;68.78
33554;BME280;19885;42.208;24.952;2023-01-28T08:07:08;99527.28;;;8.99;68.64
33554;BME280;19885;42.208;24.952;2023-01-28T08:09:34;99523.00;;;9.05;69.00
33554;BME280;19885;42.208;24.952;2023-01-28T08:12:03;99539.44;;;9.03;67.71
33554;BME280;19885;42.208;24.952;2023-01-28T08:14:28;99535.84;;;8.86;68.89
33554;BME280;19885;42.208;24.952;2023-01-28T08:16:54;99536.44;;;8.56;68.70
33554;BME280;19885;42.208;24.952;2023-01-28T08:19:19;99555.09;;;8.22;69.41
33554;BME280;19885;42.208;24.952;2023-01-28T08:21:49;99554.03;;;8.05;71.19
33554;BME280;19885;42.208;24.952;2023-01-28T08:24:15;99551.16;;;7.79;71.26
33554;BME280;19885;42.208;24.952;2023-01-28T08:26:41;99517.91;;;7.51;71.89
33554;BME280;19885;42.208;24.952;2023-01-28T08:29:08;99554.34;;;7.60;73.33
33554;BME280;19885;42.208;24.952;2023-01-28T08:31:34;99556.09;;;7.61;73.12
33554;BME280;19885;42.208;24.952;2023-01-28T08:33:59;99560.28;;;7.53;73.19
33554;BME280;19885;42.208;24.952;2023-01-28T08:36:25;99569.72;;;7.48;72.85
33554;BME280;19885;42.208;24.952;2023-01-28T08:38:51;99568.75;;;7.41;73.72
33554;BME280;19885;42.208;24.952;2023-01-28T08:41:20;99566.34;;;7.53;74.54
33554;BME280;19885;42.208;24.952;2023-01-28T08:43:46;99540.94;;;7.30;73.54
33554;BME280;19885;42.208;24.952;2023-01-28T08:46:12;99574.81;;;7.42;73.29
33554;BME280;19885;42.208;24.952;2023-01-28T08:48:37;99573.88;;;7.37;73.72
33554;BME280;19885;42.208;24.952;2023-01-28T08:51:03;99580.75;;;7.35;73.38
33554;BME280;19885;42.208;24.952;2023-01-28T08:53:29;99581.50;;;7.28;74.45
33554;BME280;19885;42.208;24.952;2023-01-28T08:55:54;99580.72;;;7.32;74.34
33554;BME280;19885;42.208;24.952;2023-01-28T08:58:20;99573.53;;;7.15;74.34
33554;BME280;19885;42.208;24.952;2023-01-28T09:00:47;99569.22;;;7.13;74.97
33554;BME280;19885;42.208;24.952;2023-01-28T09:03:12;99583.97;;;7.18;75.40
33554;BME280;19885;42.208;24.952;2023-01-28T09:05:38;99579.59;;;7.14;75.58
33554;BME280;19885;42.208;24.952;2023-01-28T09:08:08;99543.13;;;7.01;76.35
33554;BME280;19885;42.208;24.952;2023-01-28T09:10:34;99593.72;;;7.33;77.18
33554;BME280;19885;42.208;24.952;2023-01-28T09:13:06;99582.25;;;7.17;77.13
33554;BME280;19885;42.208;24.952;2023-01-28T09:15:32;99591.81;;;7.23;78.10
33554;BME280;19885;42.208;24.952;2023-01-28T09:17:58;99578.91;;;7.26;77.18
33554;BME280;19885;42.208;24.952;2023-01-28T09:20:23;99586.88;;;7.38;77.62
33554;BME280;19885;42.208;24.952;2023-01-28T09:22:49;99587.03;;;7.50;78.14
33554;BME280;19885;42.208;24.952;2023-01-28T09:25:15;99523.50;;;7.16;76.71
33554;BME280;19885;42.208;24.952;2023-01-28T09:27:40;99578.34;;;7.47;77.89
33554;BME280;19885;42.208;24.952;2023-01-28T09:30:06;99592.31;;;7.56;78.10
33554;BME280;19885;42.208;24.952;2023-01-28T09:32:32;99585.44;;;7.58;77.20
33554;BME280;19885;42.208;24.952;2023-01-28T09:34:58;99589.75;;;7.58;76.34
33554;BME280;19885;42.208;24.952;2023-01-28T09:37:24;99594.22;;;7.69;77.24
33554;BME280;19885;42.208;24.952;2023-01-28T09:39:50;99573.56;;;7.75;77.07
33554;BME280;19885;42.208;24.952;2023-01-28T09:47:40;99590.06;;;7.80;73.87
33554;BME280;19885;42.208;24.952;2023-01-28T09:50:16;99594.25;;;7.72;72.87
33554;BME280;19885;42.208;24.952;2023-01-28T09:52:43;99597.78;;;7.77;73.11
33554;BME280;19885;42.208;24.952;2023-01-28T09:55:21;99509.13;;;7.38;73.30
33554;BME280;19885;42.208;24.952;2023-01-28T09:57:52;99576.22;;;7.80;73.45
33554;BME280;19885;42.208;24.952;2023-01-28T10:00:44;99584.03;;;7.84;73.99
33554;BME280;19885;42.208;24.952;2023-01-28T10:09:39;99588.66;;;8.07;74.37
33554;BME280;19885;42.208;24.952;2023-01-28T10:17:42;99582.78;;;8.21;73.94
33554;BME280;19885;42.208;24.952;2023-01-28T10:23:07;99531.56;;;8.07;72.59
33554;BME280;19885;42.208;24.952;2023-01-28T10:25:37;99586.59;;;8.50;71.88
33554;BME280;19885;42.208;24.952;2023-01-28T10:28:17;99586.63;;;8.55;71.58
33554;BME280;19885;42.208;24.952;2023-01-28T10:30:43;99585.84;;;8.60;70.73
33554;BME280;19885;42.208;24.952;2023-01-28T10:33:18;99592.69;;;8.54;70.07
33554;BME280;19885;42.208;24.952;2023-01-28T10:35:47;99584.03;;;8.56;70.36
33554;BME280;19885;42.208;24.952;2023-01-28T10:38:15;99576.09;;;8.41;69.89
33554;BME280;19885;42.208;24.952;2023-01-28T10:40:42;99586.50;;;8.43;69.70
33554;BME280;19885;42.208;24.952;2023-01-28T10:43:08;99589.13;;;8.44;69.60
33554;BME280;19885;42.208;24.952;2023-01-28T10:45:36;99554.50;;;8.44;70.81
33554;BME280;19885;42.208;24.952;2023-01-28T10:48:16;99586.81;;;8.73;67.83
33554;BME280;19885;42.208;24.952;2023-01-28T10:50:55;99569.28;;;8.52;68.53
33554;BME280;19885;42.208;24.952;2023-01-28T10:53:36;99512.06;;;8.42;69.24
33554;BME280;19885;42.208;24.952;2023-01-28T10:56:05;99585.22;;;8.87;68.88
33554;BME280;19885;42.208;24.952;2023-01-28T10:58:33;99574.94;;;8.99;68.87
33554;BME280;19885;42.208;24.952;2023-01-28T11:01:02;99575.88;;;9.12;67.24
33554;BME280;19885;42.208;24.952;2023-01-28T11:03:29;99575.84;;;9.09;66.33
33554;BME280;19885;42.208;24.952;2023-01-28T11:05:58;99578.47;;;9.12;65.33
33554;BME280;19885;42.208;24.952;2023-01-28T11:08:25;99571.56;;;9.14;67.94
33554;BME280;19885;42.208;24.952;2023-01-28T11:10:52;99571.69;;;9.30;66.47
33554;BME280;19885;42.208;24.952;2023-01-28T11:13:28;99573.44;;;9.34;64.75
33554;BME280;19885;42.208;24.952;2023-01-28T11:16:13;99585.66;;;9.45;67.72
33554;BME280;19885;42.208;24.952;2023-01-28T11:18:48;99583.03;;;9.40;67.21
33554;BME280;19885;42.208;24.952;2023-01-28T11:21:36;99569.28;;;9.62;66.79
33554;BME280;19885;42.208;24.952;2023-01-28T11:24:05;99562.38;;;9.66;66.03
33554;BME280;19885;42.208;24.952;2023-01-28T11:26:35;99568.44;;;9.66;64.50
33554;BME280;19885;42.208;24.952;2023-01-28T11:29:02;99567.66;;;9.82;65.24
33554;BME280;19885;42.208;24.952;2023-01-28T11:31:28;99564.97;;;9.66;64.41
33554;BME280;19885;42.208;24.952;2023-01-28T11:33:58;99572.78;;;9.70;65.48
33554;BME280;19885;42.208;24.952;2023-01-28T11:36:32;99569.47;;;9.92;65.07
33554;BME280;19885;42.208;24.952;2023-01-28T11:39:15;99573.75;;;9.84;66.58
33554;BME280;19885;42.208;24.952;2023-01-28T11:41:41;99566.81;;;9.86;67.54
33554;BME280;19885;42.208;24.952;2023-01-28T11:44:22;99565.00;;;9.72;65.00
33554;BME280;19885;42.208;24.952;2023-01-28T11:52:26;99537.72;;;9.05;66.38
33554;BME280;19885;42.208;24.952;2023-01-28T11:58:00;99580.41;;;9.39;67.25
33554;BME280;19885;42.208;24.952;2023-01-28T12:00:34;99577.84;;;9.40;67.55
33554;BME280;19885;42.208;24.952;2023-01-28T12:05:51;99575.88;;;9.10;66.53
33554;BME280;19885;42.208;24.952;2023-01-28T12:14:20;99579.94;;;8.78;68.93
33554;BME280;19885;42.208;24.952;2023-01-28T12:30:33;99607.72;;;8.10;71.96
33554;BME280;19885;42.208;24.952;2023-01-28T12:36:55;99606.69;;;7.98;72.93
33554;BME280;19885;42.208;24.952;2023-01-28T12:42:16;99605.88;;;8.00;73.32
33554;BME280;19885;42.208;24.952;2023-01-28T12:44:49;99602.81;;;7.65;73.66
33554;BME280;19885;42.208;24.952;2023-01-28T12:47:33;99607.97;;;7.62;74.30
33554;BME280;19885;42.208;24.952;2023-01-28T12:50:12;99613.34;;;7.76;75.33
33554;BME280;19885;42.208;24.952;2023-01-28T12:52:48;99625.34;;;7.69;75.86
33554;BME280;19885;42.208;24.952;2023-01-28T12:55:19;99620.91;;;7.61;75.79
33554;BME280;19885;42.208;24.952;2023-01-28T12:57:50;99621.69;;;7.57;75.78
33554;BME280;19885;42.208;24.952;2023-01-28T13:00:35;99624.25;;;7.54;76.23
33554;BME280;19885;42.208;24.952;2023-01-28T13:03:10;99623.25;;;7.44;76.95
33554;BME280;19885;42.208;24.952;2023-01-28T13:05:43;99615.47;;;7.43;77.63
33554;BME280;19885;42.208;24.952;2023-01-28T13:08:18;99634.44;;;7.42;77.79
33554;BME280;19885;42.208;24.952;2023-01-28T13:10:49;99627.75;;;7.56;77.66
33554;BME280;19885;42.208;24.952;2023-01-28T13:13:37;99580.72;;;7.32;78.23
33554;BME280;19885;42.208;24.952;2023-01-28T13:16:07;99634.63;;;7.54;78.77
33554;BME280;19885;42.208;24.952;2023-01-28T13:21:00;99641.69;;;7.64;79.54
33554;BME280;19885;42.208;24.952;2023-01-28T13:25:55;99640.84;;;7.65;80.40
33554;BME280;19885;42.208;24.952;2023-01-28T13:28:29;99651.28;;;7.69;81.32
33554;BME280;19885;42.208;24.952;2023-01-28T13:31:22;99653.94;;;7.74;80.50
33554;BME280;19885;42.208;24.952;2023-01-28T13:34:01;99651.91;;;7.55;79.25
33554;BME280;19885;42.208;24.952;2023-01-28T13:39:04;99668.97;;;7.41;80.13
33554;BME280;19885;42.208;24.952;2023-01-28T13:41:45;99647.75;;;7.10;80.08
33554;BME280;19885;42.208;24.952;2023-01-28T13:44:29;99658.34;;;7.24;79.25
33554;BME280;19885;42.208;24.952;2023-01-28T13:46:59;99669.84;;;7.41;79.81
33554;BME280;19885;42.208;24.952;2023-01-28T13:49:37;99671.56;;;7.41;80.47
33554;BME280;19885;42.208;24.952;2023-01-28T13:54:37;99675.66;;;7.27;80.22
33554;BME280;19885;42.208;24.952;2023-01-28T13:57:31;99678.25;;;7.27;80.72
33554;BME280;19885;42.208;24.952;2023-01-28T14:02:38;99663.34;;;7.13;80.26
33554;BME280;19885;42.208;24.952;2023-01-28T14:19:04;99705.09;;;6.82;83.53
33554;BME280;19885;42.208;24.952;2023-01-28T14:21:34;99712.94;;;6.88;82.67
33554;BME280;19885;42.208;24.952;2023-01-28T14:24:00;99706.69;;;6.77;83.36
33554;BME280;19885;42.208;24.952;2023-01-28T14:31:48;99718.56;;;6.66;83.71
33554;BME280;19885;42.208;24.952;2023-01-28T14:34:28;99718.38;;;6.57;84.12
33554;BME280;19885;42.208;24.952;2023-01-28T14:36:58;99635.44;;;6.08;84.87
33554;BME280;19885;42.208;24.952;2023-01-28T14:39:27;99642.44;;;6.13;83.35
33554;BME280;19885;42.208;24.952;2023-01-28T14:41:55;99725.97;;;6.48;84.73
33554;BME280;19885;42.208;24.952;2023-01-28T14:44:42;99671.84;;;6.17;84.31
33554;BME280;19885;42.208;24.952;2023-01-28T14:58:17;99717.72;;;6.25;84.84
33554;BME280;19885;42.208;24.952;2023-01-28T15:00:55;99729.75;;;6.23;85.76
33554;BME280;19885;42.208;24.952;2023-01-28T15:03:23;99750.69;;;6.34;86.21
33554;BME280;19885;42.208;24.952;2023-01-28T15:05:48;99738.78;;;6.40;85.70
33554;BME280;19885;42.208;24.952;2023-01-28T15:08:23;99740.31;;;6.32;85.28